Atina — 9HA3664 — position and weather

sailwx.info

Track history (hours):
 
Tides and Currents Weather Stations Pressure Air Temp Water Temp Dewpoint Dewpoint Depression Visibility Wind Speed Wind Dir Waves Ship Positions

Atina

Last reported at 2017-Sep-15 12:44 UTC. Time now 2017-Sep-19 22:11 UTC.
Position N 38°03' W 074°28'.

Length 273 m; draft 8.9 m.

Type: Tanker. MMSI: 229853000.

Date/timePositionNaut miles runAvg speedWind from/ knotsBaromVisibWave heightAir tempDewpointWater temp
2017-Sep-15 12:44N 38°03' W 074°28'1512.8
2017-Sep-15 11:35N 38°16' W 074°36'112.8
2017-Sep-15 11:30N 38°17' W 074°37'612.9
2017-Sep-15 11:01N 38°23' W 074°40'613.0
2017-Sep-15 10:31N 38°28' W 074°45'713.0
2017-Sep-15 09:59N 38°34' W 074°50'612.9
2017-Sep-15 09:31N 38°39' W 074°55'712.7
2017-Sep-15 08:57N 38°44' W 075°00'512.2
2017-Sep-15 08:31N 38°49' W 075°04'5 9.7
2017-Sep-15 08:01N 38°54' W 075°05'612.1
2017-Sep-15 07:30N 38°59' W 075°08'612.2
2017-Sep-15 07:01N 39°05' W 075°11'612.5
2017-Sep-15 06:31N 39°10' W 075°16'713.3
2017-Sep-15 06:00N 39°16' W 075°20'714.9
2017-Sep-15 05:31N 39°21' W 075°27'815.1
2017-Sep-15 05:00N 39°27' W 075°33'612.9
2017-Sep-15 04:30N 39°33' W 075°33'510.0
2017-Sep-15 04:00N 39°38' W 075°34'611.9
2017-Sep-15 03:30N 39°44' W 075°30'510.1
2017-Sep-15 03:00N 39°48' W 075°26'4 8.8
2017-Sep-15 02:31N 39°50' W 075°22'5 9.5
2017-Sep-15 02:00N 39°51' W 075°15'2 4.1
2017-Sep-15 01:29N 39°52' W 075°13'0 0.0
2017-Sep-15 01:00N 39°52' W 075°13'0 0.0
2017-Sep-15 00:29N 39°52' W 075°13'0 0.0
2017-Sep-14 23:59N 39°52' W 075°13'0 0.0
2017-Sep-14 23:29N 39°52' W 075°13'0 0.0
2017-Sep-14 22:59N 39°52' W 075°13'0 0.0
2017-Sep-14 22:29N 39°52' W 075°13'0 0.0
2017-Sep-14 21:59N 39°52' W 075°13'0 0.0
2017-Sep-14 21:29N 39°52' W 075°13'0 0.0
2017-Sep-14 20:59N 39°52' W 075°13'0 0.0
2017-Sep-14 20:29N 39°52' W 075°13'0 0.0
2017-Sep-14 19:59N 39°52' W 075°13'0 0.0
2017-Sep-14 19:29N 39°52' W 075°13'0 0.0
2017-Sep-14 18:59N 39°52' W 075°13'0 0.0
2017-Sep-14 18:30N 39°52' W 075°13'0 0.0
2017-Sep-14 17:59N 39°52' W 075°13'0 0.0
2017-Sep-14 17:30N 39°52' W 075°13'0 0.0
2017-Sep-14 16:59N 39°52' W 075°13'0 0.0
2017-Sep-14 16:29N 39°52' W 075°13'0 0.0
2017-Sep-14 15:59N 39°52' W 075°13'0 0.0
2017-Sep-14 15:29N 39°52' W 075°13'0 0.0
2017-Sep-14 14:59N 39°52' W 075°13'0 0.0
2017-Sep-14 14:29N 39°52' W 075°13'0 0.0
2017-Sep-14 13:59N 39°52' W 075°13'0 0.0
2017-Sep-14 13:29N 39°52' W 075°13'0 0.0
2017-Sep-14 12:59N 39°52' W 075°13'0 0.0
2017-Sep-14 12:29N 39°52' W 075°13'0 0.0
2017-Sep-14 11:59N 39°52' W 075°13'0 0.0
2017-Sep-14 11:29N 39°52' W 075°13'0 0.0
2017-Sep-14 10:59N 39°52' W 075°13'0 0.0
2017-Sep-14 10:29N 39°52' W 075°13'0 0.0
2017-Sep-14 10:00N 39°52' W 075°13'0 0.0
2017-Sep-14 09:29N 39°52' W 075°13'0 0.0
2017-Sep-14 08:59N 39°52' W 075°13'0 0.0
2017-Sep-14 08:29N 39°52' W 075°13'0 0.0
2017-Sep-14 07:59N 39°52' W 075°13'0 0.0
2017-Sep-14 07:29N 39°52' W 075°13'0 0.0
2017-Sep-14 06:59N 39°52' W 075°13'0 0.0
2017-Sep-14 06:29N 39°52' W 075°13'0 0.0
2017-Sep-14 05:59N 39°52' W 075°13'0 0.0
2017-Sep-14 05:29N 39°52' W 075°13'0 0.0
2017-Sep-14 04:59N 39°52' W 075°13'0 0.0
2017-Sep-14 04:29N 39°52' W 075°13'0 0.0
2017-Sep-14 03:59N 39°52' W 075°13'0 0.0
2017-Sep-14 03:23N 39°52' W 075°13'0 0.0
2017-Sep-14 02:59N 39°52' W 075°13'0 0.0
2017-Sep-14 02:29N 39°52' W 075°13'0 0.0
2017-Sep-14 01:59N 39°52' W 075°13'0 0.0
2017-Sep-14 01:29N 39°52' W 075°13'0 0.0
2017-Sep-14 00:59N 39°52' W 075°13'0 0.0
2017-Sep-14 00:29N 39°52' W 075°13'0 0.0
2017-Sep-13 23:59N 39°52' W 075°13'0 0.0
2017-Sep-13 23:29N 39°52' W 075°13'0 0.0
2017-Sep-13 22:59N 39°52' W 075°13'0 0.0
2017-Sep-13 22:30N 39°52' W 075°13'1 1.0
2017-Sep-13 22:00N 39°52' W 075°13'3 6.3
2017-Sep-13 21:31N 39°51' W 075°17'3 7.0
2017-Sep-13 21:00N 39°50' W 075°22'4 8.1
2017-Sep-13 20:30N 39°48' W 075°26'4 7.9
2017-Sep-13 20:01N 39°45' W 075°30'5 9.7
2017-Sep-13 19:30N 39°40' W 075°32'5 9.9
2017-Sep-13 19:00N 39°35' W 075°34'510.0
2017-Sep-13 18:30N 39°30' W 075°33'611.1
2017-Sep-13 18:00N 39°25' W 075°31'612.1
2017-Sep-13 17:30N 39°21' W 075°26'612.6
2017-Sep-13 17:00N 39°16' W 075°20'612.5
2017-Sep-13 16:30N 39°11' W 075°16'612.7
2017-Sep-13 16:00N 39°05' W 075°11'613.0
2017-Sep-13 15:30N 38°60' W 075°08'612.6
2017-Sep-13 15:00N 38°54' W 075°05'4 8.7
2017-Sep-13 14:30N 38°56' W 075°10'2 3.5
2017-Sep-13 14:00N 38°57' W 075°11'0 0.1
2017-Sep-13 13:29N 38°57' W 075°11'0 0.0
2017-Sep-13 12:59N 38°57' W 075°11'0 0.0
2017-Sep-13 12:29N 38°57' W 075°11'0 0.0
2017-Sep-13 11:56N 38°57' W 075°11'0 0.0
2017-Sep-13 11:20N 38°57' W 075°11'0 0.0
2017-Sep-13 10:59N 38°57' W 075°11'0 0.0
2017-Sep-13 10:29N 38°57' W 075°11'0 0.0
2017-Sep-13 09:59N 38°57' W 075°11'0 0.1
2017-Sep-13 09:23N 38°57' W 075°11'0 0.3
2017-Sep-13 08:59N 38°57' W 075°11'0 0.3
2017-Sep-13 08:29N 38°57' W 075°11'0 0.1
2017-Sep-13 07:56N 38°57' W 075°11'0 0.1
2017-Sep-13 07:29N 38°57' W 075°11'0 0.1
2017-Sep-13 06:59N 38°57' W 075°11'0 0.0
2017-Sep-13 06:29N 38°57' W 075°11'0 0.0
2017-Sep-13 05:59N 38°57' W 075°11'0 0.0
2017-Sep-13 05:29N 38°57' W 075°11'0 0.0
2017-Sep-13 04:59N 38°57' W 075°11'0 0.0
2017-Sep-13 04:29N 38°57' W 075°11'0 0.0
2017-Sep-13 03:59N 38°57' W 075°11'0 0.1
2017-Sep-13 03:29N 38°57' W 075°11'0 0.5
2017-Sep-13 02:59N 38°57' W 075°11'0 0.1
2017-Sep-13 02:29N 38°57' W 075°11'0 0.1
2017-Sep-13 01:56N 38°57' W 075°11'0 0.0
2017-Sep-13 01:29N 38°57' W 075°11'0 0.0
2017-Sep-13 00:59N 38°57' W 075°11'0 0.0
2017-Sep-13 00:29N 38°57' W 075°11'0 0.0
2017-Sep-12 23:56N 38°57' W 075°11'0 0.0
2017-Sep-12 23:29N 38°57' W 075°11'0 0.0
2017-Sep-12 22:59N 38°57' W 075°11'0 0.0
2017-Sep-12 22:26N 38°57' W 075°11'0 0.0
2017-Sep-12 21:59N 38°57' W 075°11'0 0.0
2017-Sep-12 21:29N 38°57' W 075°11'0 0.1
2017-Sep-12 20:59N 38°57' W 075°11'0 0.3
2017-Sep-12 20:29N 38°57' W 075°11'0 0.2
2017-Sep-12 19:59N 38°57' W 075°11'0 0.0
2017-Sep-12 17:32N 38°57' W 075°11'0 0.1
2017-Sep-12 17:29N 38°57' W 075°11'0 0.0
2017-Sep-12 16:59N 38°57' W 075°11'0 0.0
2017-Sep-12 16:29N 38°57' W 075°11'0 0.0
2017-Sep-12 15:59N 38°57' W 075°11'0 0.0
2017-Sep-12 15:29N 38°57' W 075°11'0 0.0
2017-Sep-12 14:56N 38°57' W 075°11'0 0.3
2017-Sep-12 14:29N 38°57' W 075°11'0 0.3
2017-Sep-12 13:59N 38°57' W 075°11'0 0.2
2017-Sep-12 13:29N 38°57' W 075°11'0 0.1
2017-Sep-12 12:56N 38°57' W 075°11'0 0.0
2017-Sep-12 11:47N 38°57' W 075°11'0 0.0
2017-Sep-12 09:14N 38°57' W 075°11'0 0.0
2017-Sep-12 08:59N 38°57' W 075°11'0 0.0
2017-Sep-12 08:29N 38°57' W 075°11'0 0.1
2017-Sep-12 07:59N 38°57' W 075°11'0 0.3
2017-Sep-12 07:26N 38°57' W 075°11'0 0.2
2017-Sep-12 06:59N 38°57' W 075°11'0 0.1
2017-Sep-12 06:29N 38°57' W 075°11'0 0.1
2017-Sep-12 05:59N 38°57' W 075°11'0 0.0
2017-Sep-12 05:29N 38°57' W 075°11'0 0.0
2017-Sep-12 04:59N 38°57' W 075°11'0 0.1
2017-Sep-12 04:29N 38°57' W 075°11'0 0.1
2017-Sep-12 03:56N 38°57' W 075°11'0 0.0
2017-Sep-12 03:29N 38°57' W 075°11'0 0.0
2017-Sep-12 02:59N 38°57' W 075°11'0 0.4
2017-Sep-12 02:29N 38°57' W 075°11'0 0.3
2017-Sep-12 01:59N 38°57' W 075°11'0 0.1
2017-Sep-12 01:29N 38°57' W 075°11'0 0.0
2017-Sep-12 00:59N 38°57' W 075°11'0 0.0
2017-Sep-12 00:29N 38°57' W 075°11'0 0.0
2017-Sep-11 23:56N 38°57' W 075°11'0 0.1
2017-Sep-11 23:29N 38°57' W 075°11'0 0.0
2017-Sep-11 22:59N 38°57' W 075°11'0 0.0
2017-Sep-11 22:29N 38°57' W 075°11'0 0.0
2017-Sep-11 21:59N 38°57' W 075°11'0 0.1
2017-Sep-11 21:20N 38°57' W 075°11'0 0.0
2017-Sep-11 20:47N 38°57' W 075°11'0 0.0
2017-Sep-11 20:29N 38°57' W 075°11'0 0.0
2017-Sep-11 19:53N 38°57' W 075°11'0 0.1
2017-Sep-11 15:05N 38°57' W 075°11'0 0.0
2017-Sep-11 14:14N 38°57' W 075°11'0 0.1
2017-Sep-11 13:59N 38°57' W 075°11'0 0.2
2017-Sep-11 13:23N 38°57' W 075°11'0 0.3
2017-Sep-11 12:59N 38°57' W 075°11'0 0.1
2017-Sep-11 12:29N 38°57' W 075°11'0 0.0
2017-Sep-11 11:59N 38°57' W 075°11'0 0.0
2017-Sep-11 11:29N 38°57' W 075°11'0 0.0
2017-Sep-11 10:59N 38°57' W 075°11'0 0.0
2017-Sep-11 10:29N 38°57' W 075°11'0 0.0
2017-Sep-11 09:56N 38°57' W 075°11'0 0.0
2017-Sep-11 09:29N 38°57' W 075°11'0 0.0
2017-Sep-11 08:56N 38°57' W 075°11'0 0.0
2017-Sep-11 08:29N 38°57' W 075°11'0 0.0
2017-Sep-11 07:56N 38°57' W 075°11'0 0.3
2017-Sep-11 07:29N 38°57' W 075°11'0 0.4
2017-Sep-11 06:59N 38°57' W 075°11'0 0.0
2017-Sep-11 06:05N 38°57' W 075°11'0 0.0
2017-Sep-11 05:59N 38°57' W 075°11'0 0.0
2017-Sep-11 04:44N 38°57' W 075°11'0 0.1
2017-Sep-11 04:29N 38°57' W 075°11'0 0.0
2017-Sep-11 02:38N 38°57' W 075°11'0 0.0
2017-Sep-11 02:11N 38°57' W 075°11'0 0.2
2017-Sep-11 01:38N 38°57' W 075°11'0 0.4
2017-Sep-11 01:17N 38°57' W 075°11'0 0.2
2017-Sep-11 00:44N 38°57' W 075°11'0 0.1
2017-Sep-11 00:29N 38°57' W 075°11'0 0.1
2017-Sep-10 23:53N 38°57' W 075°11'0 0.1
2017-Sep-10 23:26N 38°57' W 075°11'0 0.1
2017-Sep-10 22:56N 38°57' W 075°11'0 0.0
2017-Sep-10 22:20N 38°57' W 075°11'0 0.0
2017-Sep-10 21:59N 38°57' W 075°11'0 0.0
2017-Sep-10 21:26N 38°57' W 075°11'0 0.0
2017-Sep-10 20:59N 38°57' W 075°11'0 0.0
2017-Sep-10 20:14N 38°57' W 075°11'0 0.0
2017-Sep-10 19:50N 38°57' W 075°11'0 0.0
2017-Sep-10 19:29N 38°57' W 075°11'0 0.1
2017-Sep-10 17:17N 38°57' W 075°11'0 0.1
2017-Sep-10 16:50N 38°57' W 075°11'0 0.0
2017-Sep-10 15:56N 38°57' W 075°11'0 0.0
2017-Sep-10 15:23N 38°57' W 075°11'0 0.0
2017-Sep-10 14:56N 38°57' W 075°11'0 0.0
2017-Sep-10 13:53N 38°57' W 075°11'0 0.1
2017-Sep-10 13:29N 38°57' W 075°11'0 0.2
2017-Sep-10 12:56N 38°57' W 075°11'0 0.2
2017-Sep-10 12:29N 38°57' W 075°11'0 0.1
2017-Sep-10 11:59N 38°57' W 075°11'0 0.1
2017-Sep-10 11:29N 38°57' W 075°11'0 0.1
2017-Sep-10 10:59N 38°57' W 075°11'0 0.0
2017-Sep-10 10:29N 38°57' W 075°11'0 0.0
2017-Sep-10 09:59N 38°57' W 075°11'0 0.0
2017-Sep-10 09:26N 38°57' W 075°11'0 0.0
2017-Sep-10 08:59N 38°57' W 075°11'0 0.0
2017-Sep-10 08:29N 38°57' W 075°11'0 0.0
2017-Sep-10 07:59N 38°57' W 075°11'0 0.0
2017-Sep-10 07:29N 38°57' W 075°11'0 0.0
2017-Sep-10 06:59N 38°57' W 075°11'0 0.0
2017-Sep-10 06:23N 38°57' W 075°11'0 0.0
2017-Sep-10 05:56N 38°57' W 075°11'0 0.2
2017-Sep-10 05:29N 38°57' W 075°11'0 0.3
2017-Sep-10 04:56N 38°57' W 075°11'0 0.1
2017-Sep-10 04:29N 38°57' W 075°11'0 0.1
2017-Sep-10 03:59N 38°57' W 075°11'0 0.0
2017-Sep-10 03:20N 38°57' W 075°11'0 0.0
2017-Sep-10 02:56N 38°57' W 075°11'0 0.0
2017-Sep-10 02:23N 38°57' W 075°11'0 0.1
2017-Sep-10 01:59N 38°57' W 075°11'0 0.1
2017-Sep-10 01:29N 38°57' W 075°11'0 0.2
2017-Sep-10 00:59N 38°57' W 075°11'0 0.2
2017-Sep-10 00:29N 38°57' W 075°11'0 0.1
2017-Sep-09 23:59N 38°57' W 075°11'0 0.1
2017-Sep-09 23:29N 38°57' W 075°11'0 0.0
2017-Sep-09 22:59N 38°57' W 075°11'0 0.0
2017-Sep-09 22:02N 38°57' W 075°11'0 0.1
2017-Sep-09 21:56N 38°57' W 075°11'0 0.0
2017-Sep-09 21:29N 38°57' W 075°11'0 0.0
2017-Sep-09 20:56N 38°57' W 075°11'0 0.0
2017-Sep-09 20:29N 38°57' W 075°11'0 0.0
2017-Sep-09 19:59N 38°57' W 075°11'0 0.0
2017-Sep-09 19:20N 38°57' W 075°11'0 0.0
2017-Sep-09 18:50N 38°57' W 075°11'0 0.0
2017-Sep-09 18:29N 38°57' W 075°11'0 0.1
2017-Sep-09 17:50N 38°57' W 075°11'0 0.5
2017-Sep-09 17:29N 38°57' W 075°11'0 0.2
2017-Sep-09 16:47N 38°57' W 075°11'0 0.0
2017-Sep-09 16:02N 38°57' W 075°11'0 0.1
2017-Sep-09 15:50N 38°57' W 075°11'0 0.0
2017-Sep-09 15:26N 38°57' W 075°11'0 0.0
2017-Sep-09 14:56N 38°57' W 075°11'0 0.0
2017-Sep-09 14:26N 38°57' W 075°11'0 0.0
2017-Sep-09 13:41N 38°57' W 075°11'0 0.1
2017-Sep-09 13:29N 38°57' W 075°11'0 0.0
2017-Sep-09 12:59N 38°57' W 075°11'0 0.1
2017-Sep-09 12:29N 38°57' W 075°11'0 0.3
2017-Sep-09 11:44N 38°57' W 075°11'0 0.3
2017-Sep-09 11:29N 38°57' W 075°11'0 0.1
2017-Sep-09 10:56N 38°57' W 075°11'0 0.0
2017-Sep-09 10:29N 38°57' W 075°11'0 0.0
2017-Sep-09 09:59N 38°57' W 075°11'0 0.0
2017-Sep-09 09:11N 38°57' W 075°11'0 0.0
2017-Sep-09 08:59N 38°57' W 075°11'0 0.0
2017-Sep-09 08:23N 38°57' W 075°11'0 0.0
2017-Sep-09 07:59N 38°57' W 075°11'0 0.0
2017-Sep-09 07:29N 38°57' W 075°11'0 0.0
2017-Sep-09 06:59N 38°57' W 075°11'0 0.0
2017-Sep-09 06:26N 38°57' W 075°11'0 0.0
2017-Sep-09 05:44N 38°57' W 075°11'0 0.0
2017-Sep-09 05:26N 38°57' W 075°11'0 0.4
2017-Sep-09 04:59N 38°57' W 075°11'0 0.3
2017-Sep-09 04:29N 38°57' W 075°11'0 0.1
2017-Sep-09 03:59N 38°57' W 075°11'0 0.1
2017-Sep-09 03:29N 38°57' W 075°11'0 0.0
2017-Sep-09 02:59N 38°57' W 075°11'0 0.0
2017-Sep-09 02:29N 38°57' W 075°11'0 0.0
2017-Sep-09 01:59N 38°57' W 075°11'0 0.0
2017-Sep-09 01:29N 38°57' W 075°11'0 0.0
2017-Sep-09 00:59N 38°57' W 075°11'0 0.0
2017-Sep-09 00:29N 38°57' W 075°11'0 0.1
2017-Sep-08 23:44N 38°57' W 075°11'0 0.5
2017-Sep-08 23:29N 38°57' W 075°11'0 0.3
2017-Sep-08 22:59N 38°57' W 075°11'0 0.1
2017-Sep-08 22:29N 38°57' W 075°11'0 0.0
2017-Sep-08 21:53N 38°57' W 075°11'0 0.0
2017-Sep-08 20:41N 38°57' W 075°11'0 0.0
2017-Sep-08 20:23N 38°57' W 075°11'0 0.0
2017-Sep-08 19:56N 38°57' W 075°11'0 0.0
2017-Sep-08 19:26N 38°57' W 075°11'0 0.0
2017-Sep-08 18:59N 38°57' W 075°11'0 0.1
2017-Sep-08 17:50N 38°57' W 075°11'0 0.0
2017-Sep-08 17:29N 38°57' W 075°11'0 0.1
2017-Sep-08 13:26N 38°57' W 075°11'0 0.0
2017-Sep-08 12:59N 38°57' W 075°11'0 0.0
2017-Sep-08 12:29N 38°57' W 075°11'0 0.1
2017-Sep-08 11:56N 38°57' W 075°11'0 0.4
2017-Sep-08 11:29N 38°57' W 075°12'0 0.4
2017-Sep-08 10:59N 38°57' W 075°11'0 0.1
2017-Sep-08 10:29N 38°57' W 075°11'0 0.1
2017-Sep-08 09:59N 38°57' W 075°11'0 0.0
2017-Sep-08 09:29N 38°57' W 075°11'0 0.0
2017-Sep-08 08:59N 38°57' W 075°11'0 0.0
2017-Sep-08 08:29N 38°57' W 075°11'0 0.0
2017-Sep-08 07:56N 38°57' W 075°11'0 0.0
2017-Sep-08 07:29N 38°57' W 075°11'0 0.0
2017-Sep-08 06:59N 38°57' W 075°11'0 0.0
2017-Sep-08 06:29N 38°57' W 075°11'0 0.0
2017-Sep-08 05:59N 38°57' W 075°11'0 0.1
2017-Sep-08 05:29N 38°57' W 075°11'0 0.0
2017-Sep-08 04:59N 38°57' W 075°11'0 0.3
2017-Sep-08 04:29N 38°57' W 075°11'0 0.2
2017-Sep-08 03:59N 38°57' W 075°11'0 0.1
2017-Sep-08 03:29N 38°57' W 075°11'0 0.0
2017-Sep-08 02:38N 38°57' W 075°11'0 0.0
2017-Sep-08 02:29N 38°57' W 075°11'0 0.0
2017-Sep-08 01:59N 38°57' W 075°11'0 0.0
2017-Sep-08 01:26N 38°57' W 075°11'0 0.0
2017-Sep-08 00:59N 38°57' W 075°11'0 0.0
2017-Sep-08 00:26N 38°57' W 075°11'0 0.2
2017-Sep-07 22:50N 38°57' W 075°11'0 0.6
2017-Sep-07 22:29N 38°57' W 075°11'0 0.1
2017-Sep-07 21:56N 38°57' W 075°11'0 0.0
2017-Sep-07 21:17N 38°57' W 075°11'0 0.1
2017-Sep-07 20:59N 38°57' W 075°11'0 0.0
2017-Sep-07 20:29N 38°57' W 075°11'0 0.0
2017-Sep-07 19:59N 38°57' W 075°11'0 0.0
2017-Sep-07 19:23N 38°57' W 075°11'0 0.1
2017-Sep-07 18:59N 38°57' W 075°11'0 0.1
2017-Sep-07 18:26N 38°57' W 075°11'0 0.1
2017-Sep-07 17:56N 38°57' W 075°11'0 0.0
2017-Sep-07 17:20N 38°57' W 075°11'0 0.0
2017-Sep-07 16:49N 38°57' W 075°11'0 0.1
2017-Sep-07 16:28N 38°57' W 075°11'0 0.1
2017-Sep-07 12:34N 38°57' W 075°11'0 0.1
2017-Sep-07 12:28N 38°57' W 075°11'0 0.0
2017-Sep-07 11:55N 38°57' W 075°11'0 0.2
2017-Sep-07 11:26N 38°57' W 075°11'0 0.4
2017-Sep-07 10:58N 38°57' W 075°11'0 0.3
2017-Sep-07 10:28N 38°57' W 075°11'0 0.2
2017-Sep-07 09:58N 38°57' W 075°11'0 0.1
2017-Sep-07 09:28N 38°57' W 075°11'0 0.1
2017-Sep-07 08:58N 38°57' W 075°11'0 0.0
2017-Sep-07 08:28N 38°57' W 075°11'0 0.0
2017-Sep-07 07:56N 38°57' W 075°11'0 0.0
2017-Sep-07 07:28N 38°57' W 075°11'0 0.0
2017-Sep-07 06:58N 38°57' W 075°11'0 0.0
2017-Sep-07 06:29N 38°57' W 075°11'0 0.0
2017-Sep-07 05:58N 38°57' W 075°11'0 0.0
2017-Sep-07 05:28N 38°57' W 075°11'0 0.0
2017-Sep-07 04:58N 38°57' W 075°11'0 0.3
2017-Sep-07 04:28N 38°57' W 075°11'0 0.4
2017-Sep-07 03:55N 38°57' W 075°11'0 0.1
2017-Sep-07 03:22N 38°57' W 075°11'0 0.1
2017-Sep-07 02:58N 38°57' W 075°11'0 0.0
2017-Sep-07 02:28N 38°57' W 075°11'0 0.0
2017-Sep-07 01:58N 38°57' W 075°11'0 0.0
2017-Sep-07 01:28N 38°57' W 075°11'0 0.1
2017-Sep-07 00:52N 38°57' W 075°11'0 0.0
2017-Sep-07 00:28N 38°57' W 075°11'0 0.1
2017-Sep-06 23:58N 38°57' W 075°11'0 0.3
2017-Sep-06 23:22N 38°57' W 075°11'0 0.2
2017-Sep-06 22:49N 38°57' W 075°11'0 0.0
2017-Sep-06 22:28N 38°57' W 075°11'0 0.2
2017-Sep-06 21:58N 38°57' W 075°11'0 0.4
2017-Sep-06 21:28N 38°57' W 075°11'0 0.2
2017-Sep-06 20:58N 38°57' W 075°11'0 0.1
2017-Sep-06 20:28N 38°57' W 075°11'0 0.1
2017-Sep-06 19:55N 38°57' W 075°11'0 0.0
2017-Sep-06 19:25N 38°57' W 075°11'0 0.0
2017-Sep-06 18:58N 38°57' W 075°11'0 0.0
2017-Sep-06 18:28N 38°57' W 075°11'0 0.1
2017-Sep-06 17:52N 38°57' W 075°11'0 0.0
2017-Sep-06 17:28N 38°57' W 075°11'0 0.1
2017-Sep-06 16:58N 38°57' W 075°11'0 0.0
2017-Sep-06 16:28N 38°57' W 075°11'0 0.0
2017-Sep-06 15:55N 38°57' W 075°11'0 0.1
2017-Sep-06 12:25N 38°57' W 075°11'0 0.0
2017-Sep-06 11:58N 38°57' W 075°11'0 0.0
2017-Sep-06 11:28N 38°57' W 075°11'0 0.0
2017-Sep-06 10:55N 38°57' W 075°11'0 0.1
2017-Sep-06 10:28N 38°57' W 075°11'0 0.3
2017-Sep-06 09:58N 38°57' W 075°11'0 0.3
2017-Sep-06 09:25N 38°57' W 075°11'0 0.1
2017-Sep-06 08:55N 38°57' W 075°11'0 0.1
2017-Sep-06 08:28N 38°57' W 075°11'0 0.1
2017-Sep-06 07:58N 38°57' W 075°11'0 0.0
2017-Sep-06 07:28N 38°57' W 075°11'0 0.1
2017-Sep-06 06:58N 38°57' W 075°11'0 0.0
2017-Sep-06 06:28N 38°57' W 075°11'0 0.0
2017-Sep-06 05:58N 38°57' W 075°11'0 0.1
2017-Sep-06 05:28N 38°57' W 075°11'0 0.1
2017-Sep-06 04:58N 38°57' W 075°11'0 0.0
2017-Sep-06 04:16N 38°57' W 075°11'0 0.1
2017-Sep-06 03:58N 38°57' W 075°11'0 0.2
2017-Sep-06 02:01N 38°57' W 075°11'0 0.0
2017-Sep-06 00:55N 38°57' W 075°11'0 0.0
2017-Sep-06 00:28N 38°57' W 075°11'0 0.0
2017-Sep-05 23:52N 38°57' W 075°11'0 0.0
2017-Sep-05 22:37N 38°57' W 075°11'0 0.2
2017-Sep-05 21:13N 38°57' W 075°11'0 0.2
2017-Sep-05 19:55N 38°57' W 075°11'0 0.1
2017-Sep-05 19:28N 38°57' W 075°11'0 0.0
2017-Sep-05 18:46N 38°57' W 075°11'0 0.1
2017-Sep-05 18:28N 38°57' W 075°11'0 0.0
2017-Sep-05 17:58N 38°57' W 075°11'0 0.0
2017-Sep-05 17:28N 38°57' W 075°11'0 0.0
2017-Sep-05 16:55N 38°57' W 075°11'0 0.0
2017-Sep-05 16:22N 38°57' W 075°11'0 0.0
2017-Sep-05 15:52N 38°57' W 075°11'0 0.1
2017-Sep-05 15:28N 38°57' W 075°11'  
Track history (hours):
 
Tides and Currents Weather Stations Pressure Air Temp Water Temp Dewpoint Dewpoint Depression Visibility Wind Speed Wind Dir Waves Ship Positions

Atina

Last reported at 2017-Sep-15 12:44 UTC. Time now 2017-Sep-19 22:11 UTC.
Position N 38°03' W 074°28'.

Length 273 m; draft 8.9 m.

Type: Tanker. MMSI: 229853000.

Date/timePositionNaut miles runAvg speedWind from/ knotsBaromVisibWave heightAir tempDewpointWater temp
2017-Sep-15 12:44N 38°03' W 074°28'1512.8
2017-Sep-15 11:35N 38°16' W 074°36'112.8
2017-Sep-15 11:30N 38°17' W 074°37'612.9
2017-Sep-15 11:01N 38°23' W 074°40'613.0
2017-Sep-15 10:31N 38°28' W 074°45'713.0
2017-Sep-15 09:59N 38°34' W 074°50'612.9
2017-Sep-15 09:31N 38°39' W 074°55'712.7
2017-Sep-15 08:57N 38°44' W 075°00'512.2
2017-Sep-15 08:31N 38°49' W 075°04'5 9.7
2017-Sep-15 08:01N 38°54' W 075°05'612.1
2017-Sep-15 07:30N 38°59' W 075°08'612.2
2017-Sep-15 07:01N 39°05' W 075°11'612.5
2017-Sep-15 06:31N 39°10' W 075°16'713.3
2017-Sep-15 06:00N 39°16' W 075°20'714.9
2017-Sep-15 05:31N 39°21' W 075°27'815.1
2017-Sep-15 05:00N 39°27' W 075°33'612.9
2017-Sep-15 04:30N 39°33' W 075°33'510.0
2017-Sep-15 04:00N 39°38' W 075°34'611.9
2017-Sep-15 03:30N 39°44' W 075°30'510.1
2017-Sep-15 03:00N 39°48' W 075°26'4 8.8
2017-Sep-15 02:31N 39°50' W 075°22'5 9.5
2017-Sep-15 02:00N 39°51' W 075°15'2 4.1
2017-Sep-15 01:29N 39°52' W 075°13'0 0.0
2017-Sep-15 01:00N 39°52' W 075°13'0 0.0
2017-Sep-15 00:29N 39°52' W 075°13'0 0.0
2017-Sep-14 23:59N 39°52' W 075°13'0 0.0
2017-Sep-14 23:29N 39°52' W 075°13'0 0.0
2017-Sep-14 22:59N 39°52' W 075°13'0 0.0
2017-Sep-14 22:29N 39°52' W 075°13'0 0.0
2017-Sep-14 21:59N 39°52' W 075°13'0 0.0
2017-Sep-14 21:29N 39°52' W 075°13'0 0.0
2017-Sep-14 20:59N 39°52' W 075°13'0 0.0
2017-Sep-14 20:29N 39°52' W 075°13'0 0.0
2017-Sep-14 19:59N 39°52' W 075°13'0 0.0
2017-Sep-14 19:29N 39°52' W 075°13'0 0.0
2017-Sep-14 18:59N 39°52' W 075°13'0 0.0
2017-Sep-14 18:30N 39°52' W 075°13'0 0.0
2017-Sep-14 17:59N 39°52' W 075°13'0 0.0
2017-Sep-14 17:30N 39°52' W 075°13'0 0.0
2017-Sep-14 16:59N 39°52' W 075°13'0 0.0
2017-Sep-14 16:29N 39°52' W 075°13'0 0.0
2017-Sep-14 15:59N 39°52' W 075°13'0 0.0
2017-Sep-14 15:29N 39°52' W 075°13'0 0.0
2017-Sep-14 14:59N 39°52' W 075°13'0 0.0
2017-Sep-14 14:29N 39°52' W 075°13'0 0.0
2017-Sep-14 13:59N 39°52' W 075°13'0 0.0
2017-Sep-14 13:29N 39°52' W 075°13'0 0.0
2017-Sep-14 12:59N 39°52' W 075°13'0 0.0
2017-Sep-14 12:29N 39°52' W 075°13'0 0.0
2017-Sep-14 11:59N 39°52' W 075°13'0 0.0
2017-Sep-14 11:29N 39°52' W 075°13'0 0.0
2017-Sep-14 10:59N 39°52' W 075°13'0 0.0
2017-Sep-14 10:29N 39°52' W 075°13'0 0.0
2017-Sep-14 10:00N 39°52' W 075°13'0 0.0
2017-Sep-14 09:29N 39°52' W 075°13'0 0.0
2017-Sep-14 08:59N 39°52' W 075°13'0 0.0
2017-Sep-14 08:29N 39°52' W 075°13'0 0.0
2017-Sep-14 07:59N 39°52' W 075°13'0 0.0
2017-Sep-14 07:29N 39°52' W 075°13'0 0.0
2017-Sep-14 06:59N 39°52' W 075°13'0 0.0
2017-Sep-14 06:29N 39°52' W 075°13'0 0.0
2017-Sep-14 05:59N 39°52' W 075°13'0 0.0
2017-Sep-14 05:29N 39°52' W 075°13'0 0.0
2017-Sep-14 04:59N 39°52' W 075°13'0 0.0
2017-Sep-14 04:29N 39°52' W 075°13'0 0.0
2017-Sep-14 03:59N 39°52' W 075°13'0 0.0
2017-Sep-14 03:23N 39°52' W 075°13'0 0.0
2017-Sep-14 02:59N 39°52' W 075°13'0 0.0
2017-Sep-14 02:29N 39°52' W 075°13'0 0.0
2017-Sep-14 01:59N 39°52' W 075°13'0 0.0
2017-Sep-14 01:29N 39°52' W 075°13'0 0.0
2017-Sep-14 00:59N 39°52' W 075°13'0 0.0
2017-Sep-14 00:29N 39°52' W 075°13'0 0.0
2017-Sep-13 23:59N 39°52' W 075°13'0 0.0
2017-Sep-13 23:29N 39°52' W 075°13'0 0.0
2017-Sep-13 22:59N 39°52' W 075°13'0 0.0
2017-Sep-13 22:30N 39°52' W 075°13'1 1.0
2017-Sep-13 22:00N 39°52' W 075°13'3 6.3
2017-Sep-13 21:31N 39°51' W 075°17'3 7.0
2017-Sep-13 21:00N 39°50' W 075°22'4 8.1
2017-Sep-13 20:30N 39°48' W 075°26'4 7.9
2017-Sep-13 20:01N 39°45' W 075°30'5 9.7
2017-Sep-13 19:30N 39°40' W 075°32'5 9.9
2017-Sep-13 19:00N 39°35' W 075°34'510.0
2017-Sep-13 18:30N 39°30' W 075°33'611.1
2017-Sep-13 18:00N 39°25' W 075°31'612.1
2017-Sep-13 17:30N 39°21' W 075°26'612.6
2017-Sep-13 17:00N 39°16' W 075°20'612.5
2017-Sep-13 16:30N 39°11' W 075°16'612.7
2017-Sep-13 16:00N 39°05' W 075°11'613.0
2017-Sep-13 15:30N 38°60' W 075°08'612.6
2017-Sep-13 15:00N 38°54' W 075°05'4 8.7
2017-Sep-13 14:30N 38°56' W 075°10'2 3.5
2017-Sep-13 14:00N 38°57' W 075°11'0 0.1
2017-Sep-13 13:29N 38°57' W 075°11'0 0.0
2017-Sep-13 12:59N 38°57' W 075°11'0 0.0
2017-Sep-13 12:29N 38°57' W 075°11'0 0.0
2017-Sep-13 11:56N 38°57' W 075°11'0 0.0
2017-Sep-13 11:20N 38°57' W 075°11'0 0.0
2017-Sep-13 10:59N 38°57' W 075°11'0 0.0
2017-Sep-13 10:29N 38°57' W 075°11'0 0.0
2017-Sep-13 09:59N 38°57' W 075°11'0 0.1
2017-Sep-13 09:23N 38°57' W 075°11'0 0.3
2017-Sep-13 08:59N 38°57' W 075°11'0 0.3
2017-Sep-13 08:29N 38°57' W 075°11'0 0.1
2017-Sep-13 07:56N 38°57' W 075°11'0 0.1
2017-Sep-13 07:29N 38°57' W 075°11'0 0.1
2017-Sep-13 06:59N 38°57' W 075°11'0 0.0
2017-Sep-13 06:29N 38°57' W 075°11'0 0.0
2017-Sep-13 05:59N 38°57' W 075°11'0 0.0
2017-Sep-13 05:29N 38°57' W 075°11'0 0.0
2017-Sep-13 04:59N 38°57' W 075°11'0 0.0
2017-Sep-13 04:29N 38°57' W 075°11'0 0.0
2017-Sep-13 03:59N 38°57' W 075°11'0 0.1
2017-Sep-13 03:29N 38°57' W 075°11'0 0.5
2017-Sep-13 02:59N 38°57' W 075°11'0 0.1
2017-Sep-13 02:29N 38°57' W 075°11'0 0.1
2017-Sep-13 01:56N 38°57' W 075°11'0 0.0
2017-Sep-13 01:29N 38°57' W 075°11'0 0.0
2017-Sep-13 00:59N 38°57' W 075°11'0 0.0
2017-Sep-13 00:29N 38°57' W 075°11'0 0.0
2017-Sep-12 23:56N 38°57' W 075°11'0 0.0
2017-Sep-12 23:29N 38°57' W 075°11'0 0.0
2017-Sep-12 22:59N 38°57' W 075°11'0 0.0
2017-Sep-12 22:26N 38°57' W 075°11'0 0.0
2017-Sep-12 21:59N 38°57' W 075°11'0 0.0
2017-Sep-12 21:29N 38°57' W 075°11'0 0.1
2017-Sep-12 20:59N 38°57' W 075°11'0 0.3
2017-Sep-12 20:29N 38°57' W 075°11'0 0.2
2017-Sep-12 19:59N 38°57' W 075°11'0 0.0
2017-Sep-12 17:32N 38°57' W 075°11'0 0.1
2017-Sep-12 17:29N 38°57' W 075°11'0 0.0
2017-Sep-12 16:59N 38°57' W 075°11'0 0.0
2017-Sep-12 16:29N 38°57' W 075°11'0 0.0
2017-Sep-12 15:59N 38°57' W 075°11'0 0.0
2017-Sep-12 15:29N 38°57' W 075°11'0 0.0
2017-Sep-12 14:56N 38°57' W 075°11'0 0.3
2017-Sep-12 14:29N 38°57' W 075°11'0 0.3
2017-Sep-12 13:59N 38°57' W 075°11'0 0.2
2017-Sep-12 13:29N 38°57' W 075°11'0 0.1
2017-Sep-12 12:56N 38°57' W 075°11'0 0.0
2017-Sep-12 11:47N 38°57' W 075°11'0 0.0
2017-Sep-12 09:14N 38°57' W 075°11'0 0.0
2017-Sep-12 08:59N 38°57' W 075°11'0 0.0
2017-Sep-12 08:29N 38°57' W 075°11'0 0.1
2017-Sep-12 07:59N 38°57' W 075°11'0 0.3
2017-Sep-12 07:26N 38°57' W 075°11'0 0.2
2017-Sep-12 06:59N 38°57' W 075°11'0 0.1
2017-Sep-12 06:29N 38°57' W 075°11'0 0.1
2017-Sep-12 05:59N 38°57' W 075°11'0 0.0
2017-Sep-12 05:29N 38°57' W 075°11'0 0.0
2017-Sep-12 04:59N 38°57' W 075°11'0 0.1
2017-Sep-12 04:29N 38°57' W 075°11'0 0.1
2017-Sep-12 03:56N 38°57' W 075°11'0 0.0
2017-Sep-12 03:29N 38°57' W 075°11'0 0.0
2017-Sep-12 02:59N 38°57' W 075°11'0 0.4
2017-Sep-12 02:29N 38°57' W 075°11'0 0.3
2017-Sep-12 01:59N 38°57' W 075°11'0 0.1
2017-Sep-12 01:29N 38°57' W 075°11'0 0.0
2017-Sep-12 00:59N 38°57' W 075°11'0 0.0
2017-Sep-12 00:29N 38°57' W 075°11'0 0.0
2017-Sep-11 23:56N 38°57' W 075°11'0 0.1
2017-Sep-11 23:29N 38°57' W 075°11'0 0.0
2017-Sep-11 22:59N 38°57' W 075°11'0 0.0
2017-Sep-11 22:29N 38°57' W 075°11'0 0.0
2017-Sep-11 21:59N 38°57' W 075°11'0 0.1
2017-Sep-11 21:20N 38°57' W 075°11'0 0.0
2017-Sep-11 20:47N 38°57' W 075°11'0 0.0
2017-Sep-11 20:29N 38°57' W 075°11'0 0.0
2017-Sep-11 19:53N 38°57' W 075°11'0 0.1
2017-Sep-11 15:05N 38°57' W 075°11'0 0.0
2017-Sep-11 14:14N 38°57' W 075°11'0 0.1
2017-Sep-11 13:59N 38°57' W 075°11'0 0.2
2017-Sep-11 13:23N 38°57' W 075°11'0 0.3
2017-Sep-11 12:59N 38°57' W 075°11'0 0.1
2017-Sep-11 12:29N 38°57' W 075°11'0 0.0
2017-Sep-11 11:59N 38°57' W 075°11'0 0.0
2017-Sep-11 11:29N 38°57' W 075°11'0 0.0
2017-Sep-11 10:59N 38°57' W 075°11'0 0.0
2017-Sep-11 10:29N 38°57' W 075°11'0 0.0
2017-Sep-11 09:56N 38°57' W 075°11'0 0.0
2017-Sep-11 09:29N 38°57' W 075°11'0 0.0
2017-Sep-11 08:56N 38°57' W 075°11'0 0.0
2017-Sep-11 08:29N 38°57' W 075°11'0 0.0
2017-Sep-11 07:56N 38°57' W 075°11'0 0.3
2017-Sep-11 07:29N 38°57' W 075°11'0 0.4
2017-Sep-11 06:59N 38°57' W 075°11'0 0.0
2017-Sep-11 06:05N 38°57' W 075°11'0 0.0
2017-Sep-11 05:59N 38°57' W 075°11'0 0.0
2017-Sep-11 04:44N 38°57' W 075°11'0 0.1
2017-Sep-11 04:29N 38°57' W 075°11'0 0.0
2017-Sep-11 02:38N 38°57' W 075°11'0 0.0
2017-Sep-11 02:11N 38°57' W 075°11'0 0.2
2017-Sep-11 01:38N 38°57' W 075°11'0 0.4
2017-Sep-11 01:17N 38°57' W 075°11'0 0.2
2017-Sep-11 00:44N 38°57' W 075°11'0 0.1
2017-Sep-11 00:29N 38°57' W 075°11'0 0.1
2017-Sep-10 23:53N 38°57' W 075°11'0 0.1
2017-Sep-10 23:26N 38°57' W 075°11'0 0.1
2017-Sep-10 22:56N 38°57' W 075°11'0 0.0
2017-Sep-10 22:20N 38°57' W 075°11'0 0.0
2017-Sep-10 21:59N 38°57' W 075°11'0 0.0
2017-Sep-10 21:26N 38°57' W 075°11'0 0.0
2017-Sep-10 20:59N 38°57' W 075°11'0 0.0
2017-Sep-10 20:14N 38°57' W 075°11'0 0.0
2017-Sep-10 19:50N 38°57' W 075°11'0 0.0
2017-Sep-10 19:29N 38°57' W 075°11'0 0.1
2017-Sep-10 17:17N 38°57' W 075°11'0 0.1
2017-Sep-10 16:50N 38°57' W 075°11'0 0.0
2017-Sep-10 15:56N 38°57' W 075°11'0 0.0
2017-Sep-10 15:23N 38°57' W 075°11'0 0.0
2017-Sep-10 14:56N 38°57' W 075°11'0 0.0
2017-Sep-10 13:53N 38°57' W 075°11'0 0.1
2017-Sep-10 13:29N 38°57' W 075°11'0 0.2
2017-Sep-10 12:56N 38°57' W 075°11'0 0.2
2017-Sep-10 12:29N 38°57' W 075°11'0 0.1
2017-Sep-10 11:59N 38°57' W 075°11'0 0.1
2017-Sep-10 11:29N 38°57' W 075°11'0 0.1
2017-Sep-10 10:59N 38°57' W 075°11'0 0.0
2017-Sep-10 10:29N 38°57' W 075°11'0 0.0
2017-Sep-10 09:59N 38°57' W 075°11'0 0.0
2017-Sep-10 09:26N 38°57' W 075°11'0 0.0
2017-Sep-10 08:59N 38°57' W 075°11'0 0.0
2017-Sep-10 08:29N 38°57' W 075°11'0 0.0
2017-Sep-10 07:59N 38°57' W 075°11'0 0.0
2017-Sep-10 07:29N 38°57' W 075°11'0 0.0
2017-Sep-10 06:59N 38°57' W 075°11'0 0.0
2017-Sep-10 06:23N 38°57' W 075°11'0 0.0
2017-Sep-10 05:56N 38°57' W 075°11'0 0.2
2017-Sep-10 05:29N 38°57' W 075°11'0 0.3
2017-Sep-10 04:56N 38°57' W 075°11'0 0.1
2017-Sep-10 04:29N 38°57' W 075°11'0 0.1
2017-Sep-10 03:59N 38°57' W 075°11'0 0.0
2017-Sep-10 03:20N 38°57' W 075°11'0 0.0
2017-Sep-10 02:56N 38°57' W 075°11'0 0.0
2017-Sep-10 02:23N 38°57' W 075°11'0 0.1
2017-Sep-10 01:59N 38°57' W 075°11'0 0.1
2017-Sep-10 01:29N 38°57' W 075°11'0 0.2
2017-Sep-10 00:59N 38°57' W 075°11'0 0.2
2017-Sep-10 00:29N 38°57' W 075°11'0 0.1
2017-Sep-09 23:59N 38°57' W 075°11'0 0.1
2017-Sep-09 23:29N 38°57' W 075°11'0 0.0
2017-Sep-09 22:59N 38°57' W 075°11'0 0.0
2017-Sep-09 22:02N 38°57' W 075°11'0 0.1
2017-Sep-09 21:56N 38°57' W 075°11'0 0.0
2017-Sep-09 21:29N 38°57' W 075°11'0 0.0
2017-Sep-09 20:56N 38°57' W 075°11'0 0.0
2017-Sep-09 20:29N 38°57' W 075°11'0 0.0
2017-Sep-09 19:59N 38°57' W 075°11'0 0.0
2017-Sep-09 19:20N 38°57' W 075°11'0 0.0
2017-Sep-09 18:50N 38°57' W 075°11'0 0.0
2017-Sep-09 18:29N 38°57' W 075°11'0 0.1
2017-Sep-09 17:50N 38°57' W 075°11'0 0.5
2017-Sep-09 17:29N 38°57' W 075°11'0 0.2
2017-Sep-09 16:47N 38°57' W 075°11'0 0.0
2017-Sep-09 16:02N 38°57' W 075°11'0 0.1
2017-Sep-09 15:50N 38°57' W 075°11'0 0.0
2017-Sep-09 15:26N 38°57' W 075°11'0 0.0
2017-Sep-09 14:56N 38°57' W 075°11'0 0.0
2017-Sep-09 14:26N 38°57' W 075°11'0 0.0
2017-Sep-09 13:41N 38°57' W 075°11'0 0.1
2017-Sep-09 13:29N 38°57' W 075°11'0 0.0
2017-Sep-09 12:59N 38°57' W 075°11'0 0.1
2017-Sep-09 12:29N 38°57' W 075°11'0 0.3
2017-Sep-09 11:44N 38°57' W 075°11'0 0.3
2017-Sep-09 11:29N 38°57' W 075°11'0 0.1
2017-Sep-09 10:56N 38°57' W 075°11'0 0.0
2017-Sep-09 10:29N 38°57' W 075°11'0 0.0
2017-Sep-09 09:59N 38°57' W 075°11'0 0.0
2017-Sep-09 09:11N 38°57' W 075°11'0 0.0
2017-Sep-09 08:59N 38°57' W 075°11'0 0.0
2017-Sep-09 08:23N 38°57' W 075°11'0 0.0
2017-Sep-09 07:59N 38°57' W 075°11'0 0.0
2017-Sep-09 07:29N 38°57' W 075°11'0 0.0
2017-Sep-09 06:59N 38°57' W 075°11'0 0.0
2017-Sep-09 06:26N 38°57' W 075°11'0 0.0
2017-Sep-09 05:44N 38°57' W 075°11'0 0.0
2017-Sep-09 05:26N 38°57' W 075°11'0 0.4
2017-Sep-09 04:59N 38°57' W 075°11'0 0.3
2017-Sep-09 04:29N 38°57' W 075°11'0 0.1
2017-Sep-09 03:59N 38°57' W 075°11'0 0.1
2017-Sep-09 03:29N 38°57' W 075°11'0 0.0
2017-Sep-09 02:59N 38°57' W 075°11'0 0.0
2017-Sep-09 02:29N 38°57' W 075°11'0 0.0
2017-Sep-09 01:59N 38°57' W 075°11'0 0.0
2017-Sep-09 01:29N 38°57' W 075°11'0 0.0
2017-Sep-09 00:59N 38°57' W 075°11'0 0.0
2017-Sep-09 00:29N 38°57' W 075°11'0 0.1
2017-Sep-08 23:44N 38°57' W 075°11'0 0.5
2017-Sep-08 23:29N 38°57' W 075°11'0 0.3
2017-Sep-08 22:59N 38°57' W 075°11'0 0.1
2017-Sep-08 22:29N 38°57' W 075°11'0 0.0
2017-Sep-08 21:53N 38°57' W 075°11'0 0.0
2017-Sep-08 20:41N 38°57' W 075°11'0 0.0
2017-Sep-08 20:23N 38°57' W 075°11'0 0.0
2017-Sep-08 19:56N 38°57' W 075°11'0 0.0
2017-Sep-08 19:26N 38°57' W 075°11'0 0.0
2017-Sep-08 18:59N 38°57' W 075°11'0 0.1
2017-Sep-08 17:50N 38°57' W 075°11'0 0.0
2017-Sep-08 17:29N 38°57' W 075°11'0 0.1
2017-Sep-08 13:26N 38°57' W 075°11'0 0.0
2017-Sep-08 12:59N 38°57' W 075°11'0 0.0
2017-Sep-08 12:29N 38°57' W 075°11'0 0.1
2017-Sep-08 11:56N 38°57' W 075°11'0 0.4
2017-Sep-08 11:29N 38°57' W 075°12'0 0.4
2017-Sep-08 10:59N 38°57' W 075°11'0 0.1
2017-Sep-08 10:29N 38°57' W 075°11'0 0.1
2017-Sep-08 09:59N 38°57' W 075°11'0 0.0
2017-Sep-08 09:29N 38°57' W 075°11'0 0.0
2017-Sep-08 08:59N 38°57' W 075°11'0 0.0
2017-Sep-08 08:29N 38°57' W 075°11'0 0.0
2017-Sep-08 07:56N 38°57' W 075°11'0 0.0
2017-Sep-08 07:29N 38°57' W 075°11'0 0.0
2017-Sep-08 06:59N 38°57' W 075°11'0 0.0
2017-Sep-08 06:29N 38°57' W 075°11'0 0.0
2017-Sep-08 05:59N 38°57' W 075°11'0 0.1
2017-Sep-08 05:29N 38°57' W 075°11'0 0.0
2017-Sep-08 04:59N 38°57' W 075°11'0 0.3
2017-Sep-08 04:29N 38°57' W 075°11'0 0.2
2017-Sep-08 03:59N 38°57' W 075°11'0 0.1
2017-Sep-08 03:29N 38°57' W 075°11'0 0.0
2017-Sep-08 02:38N 38°57' W 075°11'0 0.0
2017-Sep-08 02:29N 38°57' W 075°11'0 0.0
2017-Sep-08 01:59N 38°57' W 075°11'0 0.0
2017-Sep-08 01:26N 38°57' W 075°11'0 0.0
2017-Sep-08 00:59N 38°57' W 075°11'0 0.0
2017-Sep-08 00:26N 38°57' W 075°11'0 0.2
2017-Sep-07 22:50N 38°57' W 075°11'0 0.6
2017-Sep-07 22:29N 38°57' W 075°11'0 0.1
2017-Sep-07 21:56N 38°57' W 075°11'0 0.0
2017-Sep-07 21:17N 38°57' W 075°11'0 0.1
2017-Sep-07 20:59N 38°57' W 075°11'0 0.0
2017-Sep-07 20:29N 38°57' W 075°11'0 0.0
2017-Sep-07 19:59N 38°57' W 075°11'0 0.0
2017-Sep-07 19:23N 38°57' W 075°11'0 0.1
2017-Sep-07 18:59N 38°57' W 075°11'0 0.1
2017-Sep-07 18:26N 38°57' W 075°11'0 0.1
2017-Sep-07 17:56N 38°57' W 075°11'0 0.0
2017-Sep-07 17:20N 38°57' W 075°11'0 0.0
2017-Sep-07 16:49N 38°57' W 075°11'0 0.1
2017-Sep-07 16:28N 38°57' W 075°11'0 0.1
2017-Sep-07 12:34N 38°57' W 075°11'0 0.1
2017-Sep-07 12:28N 38°57' W 075°11'0 0.0
2017-Sep-07 11:55N 38°57' W 075°11'0 0.2
2017-Sep-07 11:26N 38°57' W 075°11'0 0.4
2017-Sep-07 10:58N 38°57' W 075°11'0 0.3
2017-Sep-07 10:28N 38°57' W 075°11'0 0.2
2017-Sep-07 09:58N 38°57' W 075°11'0 0.1
2017-Sep-07 09:28N 38°57' W 075°11'0 0.1
2017-Sep-07 08:58N 38°57' W 075°11'0 0.0
2017-Sep-07 08:28N 38°57' W 075°11'0 0.0
2017-Sep-07 07:56N 38°57' W 075°11'0 0.0
2017-Sep-07 07:28N 38°57' W 075°11'0 0.0
2017-Sep-07 06:58N 38°57' W 075°11'0 0.0
2017-Sep-07 06:29N 38°57' W 075°11'0 0.0
2017-Sep-07 05:58N 38°57' W 075°11'0 0.0
2017-Sep-07 05:28N 38°57' W 075°11'0 0.0
2017-Sep-07 04:58N 38°57' W 075°11'0 0.3
2017-Sep-07 04:28N 38°57' W 075°11'0 0.4
2017-Sep-07 03:55N 38°57' W 075°11'0 0.1
2017-Sep-07 03:22N 38°57' W 075°11'0 0.1
2017-Sep-07 02:58N 38°57' W 075°11'0 0.0
2017-Sep-07 02:28N 38°57' W 075°11'0 0.0
2017-Sep-07 01:58N 38°57' W 075°11'0 0.0
2017-Sep-07 01:28N 38°57' W 075°11'0 0.1
2017-Sep-07 00:52N 38°57' W 075°11'0 0.0
2017-Sep-07 00:28N 38°57' W 075°11'0 0.1
2017-Sep-06 23:58N 38°57' W 075°11'0 0.3
2017-Sep-06 23:22N 38°57' W 075°11'0 0.2
2017-Sep-06 22:49N 38°57' W 075°11'0 0.0
2017-Sep-06 22:28N 38°57' W 075°11'0 0.2
2017-Sep-06 21:58N 38°57' W 075°11'0 0.4
2017-Sep-06 21:28N 38°57' W 075°11'0 0.2
2017-Sep-06 20:58N 38°57' W 075°11'0 0.1
2017-Sep-06 20:28N 38°57' W 075°11'0 0.1
2017-Sep-06 19:55N 38°57' W 075°11'0 0.0
2017-Sep-06 19:25N 38°57' W 075°11'0 0.0
2017-Sep-06 18:58N 38°57' W 075°11'0 0.0
2017-Sep-06 18:28N 38°57' W 075°11'0 0.1
2017-Sep-06 17:52N 38°57' W 075°11'0 0.0
2017-Sep-06 17:28N 38°57' W 075°11'0 0.1
2017-Sep-06 16:58N 38°57' W 075°11'0 0.0
2017-Sep-06 16:28N 38°57' W 075°11'0 0.0
2017-Sep-06 15:55N 38°57' W 075°11'0 0.1
2017-Sep-06 12:25N 38°57' W 075°11'0 0.0
2017-Sep-06 11:58N 38°57' W 075°11'0 0.0
2017-Sep-06 11:28N 38°57' W 075°11'0 0.0
2017-Sep-06 10:55N 38°57' W 075°11'0 0.1
2017-Sep-06 10:28N 38°57' W 075°11'0 0.3
2017-Sep-06 09:58N 38°57' W 075°11'0 0.3
2017-Sep-06 09:25N 38°57' W 075°11'0 0.1
2017-Sep-06 08:55N 38°57' W 075°11'0 0.1
2017-Sep-06 08:28N 38°57' W 075°11'0 0.1
2017-Sep-06 07:58N 38°57' W 075°11'0 0.0
2017-Sep-06 07:28N 38°57' W 075°11'0 0.1
2017-Sep-06 06:58N 38°57' W 075°11'0 0.0
2017-Sep-06 06:28N 38°57' W 075°11'0 0.0
2017-Sep-06 05:58N 38°57' W 075°11'0 0.1
2017-Sep-06 05:28N 38°57' W 075°11'0 0.1
2017-Sep-06 04:58N 38°57' W 075°11'0 0.0
2017-Sep-06 04:16N 38°57' W 075°11'0 0.1
2017-Sep-06 03:58N 38°57' W 075°11'0 0.2
2017-Sep-06 02:01N 38°57' W 075°11'0 0.0
2017-Sep-06 00:55N 38°57' W 075°11'0 0.0
2017-Sep-06 00:28N 38°57' W 075°11'0 0.0
2017-Sep-05 23:52N 38°57' W 075°11'0 0.0
2017-Sep-05 22:37N 38°57' W 075°11'0 0.2
2017-Sep-05 21:13N 38°57' W 075°11'0 0.2
2017-Sep-05 19:55N 38°57' W 075°11'0 0.1
2017-Sep-05 19:28N 38°57' W 075°11'0 0.0
2017-Sep-05 18:46N 38°57' W 075°11'0 0.1
2017-Sep-05 18:28N 38°57' W 075°11'0 0.0
2017-Sep-05 17:58N 38°57' W 075°11'0 0.0
2017-Sep-05 17:28N 38°57' W 075°11'0 0.0
2017-Sep-05 16:55N 38°57' W 075°11'0 0.0
2017-Sep-05 16:22N 38°57' W 075°11'0 0.0
2017-Sep-05 15:52N 38°57' W 075°11'0 0.1
2017-Sep-05 15:28N 38°57' W 075°11'  

Dump ship's entire track history